Aviation Digital Data Service (ADDS)

Output produced by METARs form (1821 UTC 19 April 2019)
found at http://www.aviationweather.gov/metar/data/
 
METAR text: SUMU 191800Z 28010KT CAVOK 26/15 Q1009 NOSIG
Conditions at: SUMU (CARRASCO (CIV/MI, UY) observed 1800 UTC 19 April 2019
Temperature: 26.0°C (79°F)
Dewpoint: 15.0°C (59°F) [RH = 51%]
Pressure (altimeter): 29.79 inches Hg (1009.0 mb)
Winds: from the W (280 degrees) at 12 MPH (10 knots; 5.1 m/s)
Visibility: 6 or more miles (10+ km)
Ceiling: ceiling and visibility are OK
Clouds: unknown
Weather: no significant weather observed at this time

METAR text: SUMU 191700Z 26008KT CAVOK 26/14 Q1009 NOSIG
Conditions at: SUMU (CARRASCO (CIV/MI, UY) observed 1700 UTC 19 April 2019
Temperature: 26.0°C (79°F)
Dewpoint: 14.0°C (57°F) [RH = 48%]
Pressure (altimeter): 29.79 inches Hg (1009.0 mb)
Winds: from the W (260 degrees) at 9 MPH (8 knots; 4.1 m/s)
Visibility: 6 or more miles (10+ km)
Ceiling: ceiling and visibility are OK
Clouds: unknown
Weather: no significant weather observed at this time

METAR text: SUMU 191600Z 29010KT CAVOK 25/14 Q1010 NOSIG
Conditions at: SUMU (CARRASCO (CIV/MI, UY) observed 1600 UTC 19 April 2019
Temperature: 25.0°C (77°F)
Dewpoint: 14.0°C (57°F) [RH = 50%]
Pressure (altimeter): 29.82 inches Hg (1010.0 mb)
Winds: from the WNW (290 degrees) at 12 MPH (10 knots; 5.1 m/s)
Visibility: 6 or more miles (10+ km)
Ceiling: ceiling and visibility are OK
Clouds: unknown
Weather: no significant weather observed at this time

METAR text: SUMU 191500Z 31010KT CAVOK 24/14 Q1011 NOSIG
Conditions at: SUMU (CARRASCO (CIV/MI, UY) observed 1500 UTC 19 April 2019
Temperature: 24.0°C (75°F)
Dewpoint: 14.0°C (57°F) [RH = 54%]
Pressure (altimeter): 29.85 inches Hg (1011.0 mb)
Winds: from the NW (310 degrees) at 12 MPH (10 knots; 5.1 m/s)
Visibility: 6 or more miles (10+ km)
Ceiling: ceiling and visibility are OK
Clouds: unknown
Weather: no significant weather observed at this time

METAR text: SUMU 191400Z 32008KT CAVOK 23/14 Q1011 NOSIG
Conditions at: SUMU (CARRASCO (CIV/MI, UY) observed 1400 UTC 19 April 2019
Temperature: 23.0°C (73°F)
Dewpoint: 14.0°C (57°F) [RH = 57%]
Pressure (altimeter): 29.85 inches Hg (1011.0 mb)
Winds: from the NW (320 degrees) at 9 MPH (8 knots; 4.1 m/s)
Visibility: 6 or more miles (10+ km)
Ceiling: ceiling and visibility are OK
Clouds: unknown
Weather: no significant weather observed at this time

METAR text: SUMU 191300Z 33008KT CAVOK 20/14 Q1011 NOSIG
Conditions at: SUMU (CARRASCO (CIV/MI, UY) observed 1300 UTC 19 April 2019
Temperature: 20.0°C (68°F)
Dewpoint: 14.0°C (57°F) [RH = 68%]
Pressure (altimeter): 29.85 inches Hg (1011.0 mb)
Winds: from the NNW (330 degrees) at 9 MPH (8 knots; 4.1 m/s)
Visibility: 6 or more miles (10+ km)
Ceiling: ceiling and visibility are OK
Clouds: unknown
Weather: no significant weather observed at this time

METAR text: SUMU 191200Z 33004KT CAVOK 17/13 Q1012 NOSIG
Conditions at: SUMU (CARRASCO (CIV/MI, UY) observed 1200 UTC 19 April 2019
Temperature: 17.0°C (63°F)
Dewpoint: 13.0°C (55°F) [RH = 77%]
Pressure (altimeter): 29.88 inches Hg (1012.0 mb)
Winds: from the NNW (330 degrees) at 5 MPH (4 knots; 2.1 m/s)
Visibility: 6 or more miles (10+ km)
Ceiling: ceiling and visibility are OK
Clouds: unknown
Weather: no significant weather observed at this time

METAR text: SUMU 191100Z 36005KT CAVOK 14/11 Q1011 NOSIG
Conditions at: SUMU (CARRASCO (CIV/MI, UY) observed 1100 UTC 19 April 2019
Temperature: 14.0°C (57°F)
Dewpoint: 11.0°C (52°F) [RH = 82%]
Pressure (altimeter): 29.85 inches Hg (1011.0 mb)
Winds: from the N (360 degrees) at 6 MPH (5 knots; 2.6 m/s)
Visibility: 6 or more miles (10+ km)
Ceiling: ceiling and visibility are OK
Clouds: unknown
Weather: no significant weather observed at this time

METAR text: SUMU 191000Z 36004KT CAVOK 12/10 Q1011 NOSIG
Conditions at: SUMU (CARRASCO (CIV/MI, UY) observed 1000 UTC 19 April 2019
Temperature: 12.0°C (54°F)
Dewpoint: 10.0°C (50°F) [RH = 88%]
Pressure (altimeter): 29.85 inches Hg (1011.0 mb)
Winds: from the N (360 degrees) at 5 MPH (4 knots; 2.1 m/s)
Visibility: 6 or more miles (10+ km)
Ceiling: ceiling and visibility are OK
Clouds: unknown
Weather: no significant weather observed at this time

METAR text: SUMU 190900Z 36003KT CAVOK 13/11 Q1010 NOSIG
Conditions at: SUMU (CARRASCO (CIV/MI, UY) observed 0900 UTC 19 April 2019
Temperature: 13.0°C (55°F)
Dewpoint: 11.0°C (52°F) [RH = 88%]
Pressure (altimeter): 29.82 inches Hg (1010.0 mb)
Winds: from the N (360 degrees) at 3 MPH (3 knots; 1.5 m/s)
Visibility: 6 or more miles (10+ km)
Ceiling: ceiling and visibility are OK
Clouds: unknown
Weather: no significant weather observed at this time

METAR text: SUMU 190800Z 36004KT CAVOK 13/11 Q1010 NOSIG
Conditions at: SUMU (CARRASCO (CIV/MI, UY) observed 0800 UTC 19 April 2019
Temperature: 13.0°C (55°F)
Dewpoint: 11.0°C (52°F) [RH = 88%]
Pressure (altimeter): 29.82 inches Hg (1010.0 mb)
Winds: from the N (360 degrees) at 5 MPH (4 knots; 2.1 m/s)
Visibility: 6 or more miles (10+ km)
Ceiling: ceiling and visibility are OK
Clouds: unknown
Weather: no significant weather observed at this time

METAR text: SUMU 190700Z 35005KT 8000 NSC 14/11 Q1010 NOSIG
Conditions at: SUMU (CARRASCO (CIV/MI, UY) observed 0700 UTC 19 April 2019
Temperature: 14.0°C (57°F)
Dewpoint: 11.0°C (52°F) [RH = 82%]
Pressure (altimeter): 29.82 inches Hg (1010.0 mb)
Winds: from the N (350 degrees) at 6 MPH (5 knots; 2.6 m/s)
Visibility: 5 miles ( 8 km)
Ceiling: at least 12,000 feet AGL
Clouds: sky clear below 12,000 feet AGL
Weather: no significant weather observed at this time

METAR text: SUMU 190600Z 34003KT 7000 NSC 14/12 Q1011 NOSIG
Conditions at: SUMU (CARRASCO (CIV/MI, UY) observed 0600 UTC 19 April 2019
Temperature: 14.0°C (57°F)
Dewpoint: 12.0°C (54°F) [RH = 88%]
Pressure (altimeter): 29.85 inches Hg (1011.0 mb)
Winds: from the NNW (340 degrees) at 3 MPH (3 knots; 1.5 m/s)
Visibility: 4 miles ( 7 km)
Ceiling: at least 12,000 feet AGL
Clouds: sky clear below 12,000 feet AGL
Weather: no significant weather observed at this time

METAR text: SUMU 190500Z 02005KT 7000 NSC 14/13 Q1011 NOSIG
Conditions at: SUMU (CARRASCO (CIV/MI, UY) observed 0500 UTC 19 April 2019
Temperature: 14.0°C (57°F)
Dewpoint: 13.0°C (55°F) [RH = 94%]
Pressure (altimeter): 29.85 inches Hg (1011.0 mb)
Winds: from the NNE (20 degrees) at 6 MPH (5 knots; 2.6 m/s)
Visibility: 4 miles ( 7 km)
Ceiling: at least 12,000 feet AGL
Clouds: sky clear below 12,000 feet AGL
Weather: no significant weather observed at this time

METAR text: SUMU 190400Z 02003KT 5000 BR NSC 15/14 Q1011 NOSIG
Conditions at: SUMU (CARRASCO (CIV/MI, UY) observed 0400 UTC 19 April 2019
Temperature: 15.0°C (59°F)
Dewpoint: 14.0°C (57°F) [RH = 94%]
Pressure (altimeter): 29.85 inches Hg (1011.0 mb)
Winds: from the NNE (20 degrees) at 3 MPH (3 knots; 1.5 m/s)
Visibility: 3 miles ( 5 km)
Ceiling: at least 12,000 feet AGL
Clouds: sky clear below 12,000 feet AGL
Weather: BR  (mist)

METAR text: SUMU 190300Z 02004KT 5000 BR NSC 16/15 Q1011 NOSIG
Conditions at: SUMU (CARRASCO (CIV/MI, UY) observed 0300 UTC 19 April 2019
Temperature: 16.0°C (61°F)
Dewpoint: 15.0°C (59°F) [RH = 94%]
Pressure (altimeter): 29.85 inches Hg (1011.0 mb)
Winds: from the NNE (20 degrees) at 5 MPH (4 knots; 2.1 m/s)
Visibility: 3 miles ( 5 km)
Ceiling: at least 12,000 feet AGL
Clouds: sky clear below 12,000 feet AGL
Weather: BR  (mist)

METAR text: SUMU 190200Z 00000KT 5000 BR NSC 16/14 Q1012 NOSIG
Conditions at: SUMU (CARRASCO (CIV/MI, UY) observed 0200 UTC 19 April 2019
Temperature: 16.0°C (61°F)
Dewpoint: 14.0°C (57°F) [RH = 88%]
Pressure (altimeter): 29.88 inches Hg (1012.0 mb)
Winds: calm
Visibility: 3 miles ( 5 km)
Ceiling: at least 12,000 feet AGL
Clouds: sky clear below 12,000 feet AGL
Weather: BR  (mist)

METAR text: SUMU 190100Z 05003KT 7000 NSC 17/15 Q1011 NOSIG
Conditions at: SUMU (CARRASCO (CIV/MI, UY) observed 0100 UTC 19 April 2019
Temperature: 17.0°C (63°F)
Dewpoint: 15.0°C (59°F) [RH = 88%]
Pressure (altimeter): 29.85 inches Hg (1011.0 mb)
Winds: from the NE (50 degrees) at 3 MPH (3 knots; 1.5 m/s)
Visibility: 4 miles ( 7 km)
Ceiling: at least 12,000 feet AGL
Clouds: sky clear below 12,000 feet AGL
Weather: no significant weather observed at this time

METAR text: SUMU 190000Z 06003KT CAVOK 18/15 Q1011 NOSIG
Conditions at: SUMU (CARRASCO (CIV/MI, UY) observed 0000 UTC 19 April 2019
Temperature: 18.0°C (64°F)
Dewpoint: 15.0°C (59°F) [RH = 83%]
Pressure (altimeter): 29.85 inches Hg (1011.0 mb)
Winds: from the ENE (60 degrees) at 3 MPH (3 knots; 1.5 m/s)
Visibility: 6 or more miles (10+ km)
Ceiling: ceiling and visibility are OK
Clouds: unknown
Weather: no significant weather observed at this time

METAR text: SUMU 182300Z 00000KT CAVOK 19/15 Q1011 NOSIG
Conditions at: SUMU (CARRASCO (CIV/MI, UY) observed 2300 UTC 18 April 2019
Temperature: 19.0°C (66°F)
Dewpoint: 15.0°C (59°F) [RH = 78%]
Pressure (altimeter): 29.85 inches Hg (1011.0 mb)
Winds: calm
Visibility: 6 or more miles (10+ km)
Ceiling: ceiling and visibility are OK
Clouds: unknown
Weather: no significant weather observed at this time

METAR text: SUMU 182200Z 16002KT CAVOK 19/15 Q1011 NOSIG
Conditions at: SUMU (CARRASCO (CIV/MI, UY) observed 2200 UTC 18 April 2019
Temperature: 19.0°C (66°F)
Dewpoint: 15.0°C (59°F) [RH = 78%]
Pressure (altimeter): 29.85 inches Hg (1011.0 mb)
Winds: from the SSE (160 degrees) at 2 MPH (2 knots; 1.0 m/s)
Visibility: 6 or more miles (10+ km)
Ceiling: ceiling and visibility are OK
Clouds: unknown
Weather: no significant weather observed at this time

METAR text: SUMU 182100Z 19005KT CAVOK 20/14 Q1011 NOSIG
Conditions at: SUMU (CARRASCO (CIV/MI, UY) observed 2100 UTC 18 April 2019
Temperature: 20.0°C (68°F)
Dewpoint: 14.0°C (57°F) [RH = 68%]
Pressure (altimeter): 29.85 inches Hg (1011.0 mb)
Winds: from the S (190 degrees) at 6 MPH (5 knots; 2.6 m/s)
Visibility: 6 or more miles (10+ km)
Ceiling: ceiling and visibility are OK
Clouds: unknown
Weather: no significant weather observed at this time

METAR text: SUMU 182000Z 19005KT CAVOK 22/14 Q1011 NOSIG
Conditions at: SUMU (CARRASCO (CIV/MI, UY) observed 2000 UTC 18 April 2019
Temperature: 22.0°C (72°F)
Dewpoint: 14.0°C (57°F) [RH = 60%]
Pressure (altimeter): 29.85 inches Hg (1011.0 mb)
Winds: from the S (190 degrees) at 6 MPH (5 knots; 2.6 m/s)
Visibility: 6 or more miles (10+ km)
Ceiling: ceiling and visibility are OK
Clouds: unknown
Weather: no significant weather observed at this time

METAR text: SUMU 181900Z 20006KT CAVOK 22/14 Q1011 NOSIG
Conditions at: SUMU (CARRASCO (CIV/MI, UY) observed 1900 UTC 18 April 2019
Temperature: 22.0°C (72°F)
Dewpoint: 14.0°C (57°F) [RH = 60%]
Pressure (altimeter): 29.85 inches Hg (1011.0 mb)
Winds: from the SSW (200 degrees) at 7 MPH (6 knots; 3.1 m/s)
Visibility: 6 or more miles (10+ km)
Ceiling: ceiling and visibility are OK
Clouds: unknown
Weather: no significant weather observed at this time

METAR text: SUMU 181800Z 02004KT CAVOK 24/11 Q1011 NOSIG
Conditions at: SUMU (CARRASCO (CIV/MI, UY) observed 1800 UTC 18 April 2019
Temperature: 24.0°C (75°F)
Dewpoint: 11.0°C (52°F) [RH = 44%]
Pressure (altimeter): 29.85 inches Hg (1011.0 mb)
Winds: from the NNE (20 degrees) at 5 MPH (4 knots; 2.1 m/s)
Visibility: 6 or more miles (10+ km)
Ceiling: ceiling and visibility are OK
Clouds: unknown
Weather: no significant weather observed at this time

METAR text: SUMU 181700Z 33005KT 280V350 CAVOK 25/12 Q1012 NOSIG
Conditions at: SUMU (CARRASCO (CIV/MI, UY) observed 1700 UTC 18 April 2019
Temperature: 25.0°C (77°F)
Dewpoint: 12.0°C (54°F) [RH = 44%]
Pressure (altimeter): 29.88 inches Hg (1012.0 mb)
Winds: from the NNW (330 degrees) at 6 MPH (5 knots; 2.6 m/s)
Visibility: 6 or more miles (10+ km)
Ceiling: ceiling and visibility are OK
Clouds: unknown
Weather: no significant weather observed at this time

METAR text: SUMU 181600Z 31005KT CAVOK 24/11 Q1013 NOSIG
Conditions at: SUMU (CARRASCO (CIV/MI, UY) observed 1600 UTC 18 April 2019
Temperature: 24.0°C (75°F)
Dewpoint: 11.0°C (52°F) [RH = 44%]
Pressure (altimeter): 29.91 inches Hg (1013.0 mb)
Winds: from the NW (310 degrees) at 6 MPH (5 knots; 2.6 m/s)
Visibility: 6 or more miles (10+ km)
Ceiling: ceiling and visibility are OK
Clouds: unknown
Weather: no significant weather observed at this time

METAR text: SUMU 181500Z 33006KT CAVOK 24/13 Q1014 NOSIG
Conditions at: SUMU (CARRASCO (CIV/MI, UY) observed 1500 UTC 18 April 2019
Temperature: 24.0°C (75°F)
Dewpoint: 13.0°C (55°F) [RH = 50%]
Pressure (altimeter): 29.94 inches Hg (1014.0 mb)
Winds: from the NNW (330 degrees) at 7 MPH (6 knots; 3.1 m/s)
Visibility: 6 or more miles (10+ km)
Ceiling: ceiling and visibility are OK
Clouds: unknown
Weather: no significant weather observed at this time

METAR text: SUMU 181400Z 33006KT CAVOK 22/13 Q1014 NOSIG
Conditions at: SUMU (CARRASCO (CIV/MI, UY) observed 1400 UTC 18 April 2019
Temperature: 22.0°C (72°F)
Dewpoint: 13.0°C (55°F) [RH = 57%]
Pressure (altimeter): 29.94 inches Hg (1014.0 mb)
Winds: from the NNW (330 degrees) at 7 MPH (6 knots; 3.1 m/s)
Visibility: 6 or more miles (10+ km)
Ceiling: ceiling and visibility are OK
Clouds: unknown
Weather: no significant weather observed at this time

METAR text: SUMU 181300Z 01005KT CAVOK 19/14 Q1014 NOSIG
Conditions at: SUMU (CARRASCO (CIV/MI, UY) observed 1300 UTC 18 April 2019
Temperature: 19.0°C (66°F)
Dewpoint: 14.0°C (57°F) [RH = 73%]
Pressure (altimeter): 29.94 inches Hg (1014.0 mb)
Winds: from the N (10 degrees) at 6 MPH (5 knots; 2.6 m/s)
Visibility: 6 or more miles (10+ km)
Ceiling: ceiling and visibility are OK
Clouds: unknown
Weather: no significant weather observed at this time

METAR text: SUMU 181200Z 35005KT CAVOK 16/12 Q1015 NOSIG
Conditions at: SUMU (CARRASCO (CIV/MI, UY) observed 1200 UTC 18 April 2019
Temperature: 16.0°C (61°F)
Dewpoint: 12.0°C (54°F) [RH = 77%]
Pressure (altimeter): 29.97 inches Hg (1015.0 mb)
Winds: from the N (350 degrees) at 6 MPH (5 knots; 2.6 m/s)
Visibility: 6 or more miles (10+ km)
Ceiling: ceiling and visibility are OK
Clouds: unknown
Weather: no significant weather observed at this time

METAR text: SUMU 181100Z 01004KT CAVOK 13/11 Q1014 NOSIG
Conditions at: SUMU (CARRASCO (CIV/MI, UY) observed 1100 UTC 18 April 2019
Temperature: 13.0°C (55°F)
Dewpoint: 11.0°C (52°F) [RH = 88%]
Pressure (altimeter): 29.94 inches Hg (1014.0 mb)
Winds: from the N (10 degrees) at 5 MPH (4 knots; 2.1 m/s)
Visibility: 6 or more miles (10+ km)
Ceiling: ceiling and visibility are OK
Clouds: unknown
Weather: no significant weather observed at this time

METAR text: SUMU 181000Z 01003KT CAVOK 13/10 Q1014 NOSIG
Conditions at: SUMU (CARRASCO (CIV/MI, UY) observed 1000 UTC 18 April 2019
Temperature: 13.0°C (55°F)
Dewpoint: 10.0°C (50°F) [RH = 82%]
Pressure (altimeter): 29.94 inches Hg (1014.0 mb)
Winds: from the N (10 degrees) at 3 MPH (3 knots; 1.5 m/s)
Visibility: 6 or more miles (10+ km)
Ceiling: ceiling and visibility are OK
Clouds: unknown
Weather: no significant weather observed at this time

METAR text: SUMU 180900Z 36004KT CAVOK 13/10 Q1014 NOSIG
Conditions at: SUMU (CARRASCO (CIV/MI, UY) observed 0900 UTC 18 April 2019
Temperature: 13.0°C (55°F)
Dewpoint: 10.0°C (50°F) [RH = 82%]
Pressure (altimeter): 29.94 inches Hg (1014.0 mb)
Winds: from the N (360 degrees) at 5 MPH (4 knots; 2.1 m/s)
Visibility: 6 or more miles (10+ km)
Ceiling: ceiling and visibility are OK
Clouds: unknown
Weather: no significant weather observed at this time

METAR text: SUMU 180800Z 34003KT CAVOK 11/10 Q1014 NOSIG
Conditions at: SUMU (CARRASCO (CIV/MI, UY) observed 0800 UTC 18 April 2019
Temperature: 11.0°C (52°F)
Dewpoint: 10.0°C (50°F) [RH = 94%]
Pressure (altimeter): 29.94 inches Hg (1014.0 mb)
Winds: from the NNW (340 degrees) at 3 MPH (3 knots; 1.5 m/s)
Visibility: 6 or more miles (10+ km)
Ceiling: ceiling and visibility are OK
Clouds: unknown
Weather: no significant weather observed at this time

METAR text: SUMU 180700Z 33003KT CAVOK 12/10 Q1014 NOSIG
Conditions at: SUMU (CARRASCO (CIV/MI, UY) observed 0700 UTC 18 April 2019
Temperature: 12.0°C (54°F)
Dewpoint: 10.0°C (50°F) [RH = 88%]
Pressure (altimeter): 29.94 inches Hg (1014.0 mb)
Winds: from the NNW (330 degrees) at 3 MPH (3 knots; 1.5 m/s)
Visibility: 6 or more miles (10+ km)
Ceiling: ceiling and visibility are OK
Clouds: unknown
Weather: no significant weather observed at this time

Forecast for: SUMU (CARRASCO (CIV/MI, UY)
Text: SUMU TAF 191715Z 1918/2018 29010KT CAVOK TX22/2018Z TN14/2010Z
Forecast period: 1800 UTC 19 April 2019 to 0600 UTC 20 April 2019
Forecast type: FROM: standard forecast or significant change
Winds: from the WNW (290 degrees) at 12 MPH (10 knots; 5.1 m/s)
Visibility: 6 or more miles 10+ km)
Ceiling: unknown
Clouds: missing
Weather: no significant weather forecast for this period
Text: BECMG 2006/2010 16010KT
Forecast period: 0600 to 1800 UTC 20 April 2019
Forecast type: BECOMING: Conditions expected to become as follows by 1000 UTC 20 April 2019
Winds: from the SSE (160 degrees) at 12 MPH (10 knots; 5.1 m/s)
Visibility: 6 or more miles 10+ km)
Ceiling: unknown
Clouds: missing
Weather: no significant weather forecast for this period